Kezdőlap
METAR-TAF:

METAR-TAF

Repülőterek :

Monroe Municipal Airport

Monroe, Wisconsin, Amerikai Egyesült Államok

földrajzi szélesség: 42-36-54N, földrajzi hosszúság: 089-35-27W, magasság: 331 m

Jelenlegi meteorológiai megfigyelések

A jelentés 24 perccel ezelõtt készült, 16:15 UTC
Nyugat-északnyugati szél 6 kt széllökések: 18 kt
Hőmérséklet 10°C
Páratartalom 76%
Légköri nyomás 1017 hPa
Látótávolság: 16.1 km
Szórványos felhőzet 1700 lábon
Szakadozott felhőzet 2100 lábon
Borult 3400 lábon

METAR: KEFT 011615Z AUTO 30006G18KT 10SM SCT017 BKN021 OVC034 10/06 A3003 RMK AO2 LTG DSNT E T01010056

Idő: 11:39 (16:39 UTC)


TAF: hiányzik

Meteorológiai megfigyelések és előrejelzések több, mint 4000 repülőtéren (METAR és TAF jelentéseket).

A térképen piros és sárga pontok jelzik az elérhető meteorológiai állomásokat.

Mozgassa az egeret a pont fölött, hogy megjelenjen az állomás neve.

Azután kattintson az időjárási megfigyelések és előrejelzések megtekintéséhez.

A térkép megváltoztatása: kattintson a fekete keresztel jelölt zöld gombra ráközelítéshez, a vonallal jelölt zöld gombra távolításhoz, vagy a zöld nyilakra a szomszédos térképek eléréséhez.


METAR-TAF: